sensor_id;sensor_type;location;lat;lon;timestamp;pressure;altitude;pressure_sealevel;temperature;humidity
14117;BME280;7137;51.436;6.544;2024-03-29T00:01:22;98888.34;;;9.10;74.51
14117;BME280;7137;51.436;6.544;2024-03-29T00:04:24;98888.44;;;9.09;74.95
14117;BME280;7137;51.436;6.544;2024-03-29T00:07:24;98880.81;;;9.06;74.37
14117;BME280;7137;51.436;6.544;2024-03-29T00:10:25;98877.84;;;8.96;75.57
14117;BME280;7137;51.436;6.544;2024-03-29T00:13:26;98878.53;;;9.00;75.67
14117;BME280;7137;51.436;6.544;2024-03-29T00:16:26;98867.44;;;8.96;75.28
14117;BME280;7137;51.436;6.544;2024-03-29T00:19:28;98869.78;;;9.01;74.49
14117;BME280;7137;51.436;6.544;2024-03-29T00:22:29;98863.59;;;9.03;75.16
14117;BME280;7137;51.436;6.544;2024-03-29T00:25:30;98859.31;;;9.02;75.22
14117;BME280;7137;51.436;6.544;2024-03-29T00:28:30;98858.47;;;9.02;75.21
14117;BME280;7137;51.436;6.544;2024-03-29T00:31:31;98854.94;;;9.03;75.47
14117;BME280;7137;51.436;6.544;2024-03-29T00:34:33;98860.91;;;9.05;73.99
14117;BME280;7137;51.436;6.544;2024-03-29T00:37:33;98861.75;;;9.05;73.74
14117;BME280;7137;51.436;6.544;2024-03-29T00:40:35;98874.59;;;9.08;74.26
14117;BME280;7137;51.436;6.544;2024-03-29T00:43:36;98881.56;;;9.08;73.65
14117;BME280;7137;51.436;6.544;2024-03-29T00:46:36;98873.09;;;9.04;74.84
14117;BME280;7137;51.436;6.544;2024-03-29T00:49:38;98873.47;;;8.97;75.30
14117;BME280;7137;51.436;6.544;2024-03-29T00:52:39;98880.38;;;8.98;74.45
14117;BME280;7137;51.436;6.544;2024-03-29T00:55:40;98886.50;;;8.97;74.76
14117;BME280;7137;51.436;6.544;2024-03-29T00:58:40;98880.53;;;8.95;74.85
14117;BME280;7137;51.436;6.544;2024-03-29T01:01:41;98891.22;;;8.90;75.48
14117;BME280;7137;51.436;6.544;2024-03-29T01:04:43;98884.25;;;8.90;75.71
14117;BME280;7137;51.436;6.544;2024-03-29T01:07:44;98863.06;;;8.81;75.79
14117;BME280;7137;51.436;6.544;2024-03-29T01:10:44;98870.78;;;8.82;76.34
14117;BME280;7137;51.436;6.544;2024-03-29T01:13:45;98875.41;;;8.77;76.48
14117;BME280;7137;51.436;6.544;2024-03-29T01:16:45;98888.78;;;8.87;76.16
14117;BME280;7137;51.436;6.544;2024-03-29T01:19:48;98889.63;;;8.87;76.73
14117;BME280;7137;51.436;6.544;2024-03-29T01:22:48;98877.50;;;8.86;76.79
14117;BME280;7137;51.436;6.544;2024-03-29T01:25:49;98892.91;;;8.91;75.97
14117;BME280;7137;51.436;6.544;2024-03-29T01:28:49;98885.75;;;8.95;75.99
14117;BME280;7137;51.436;6.544;2024-03-29T01:31:50;98871.63;;;8.99;76.79
14117;BME280;7137;51.436;6.544;2024-03-29T01:34:52;98872.31;;;9.02;76.02
14117;BME280;7137;51.436;6.544;2024-03-29T01:37:53;98877.28;;;9.07;75.76
14117;BME280;7137;51.436;6.544;2024-03-29T01:40:53;98866.84;;;9.07;75.86
14117;BME280;7137;51.436;6.544;2024-03-29T01:43:54;98865.28;;;9.04;76.09
14117;BME280;7137;51.436;6.544;2024-03-29T01:46:56;98869.28;;;9.10;76.32
14117;BME280;7137;51.436;6.544;2024-03-29T01:49:59;98878.38;;;9.18;74.72
14117;BME280;7137;51.436;6.544;2024-03-29T01:53:01;98859.13;;;9.21;75.02
14117;BME280;7137;51.436;6.544;2024-03-29T01:56:04;98852.81;;;9.25;74.20
14117;BME280;7137;51.436;6.544;2024-03-29T01:59:11;98853.97;;;9.35;73.42
14117;BME280;7137;51.436;6.544;2024-03-29T02:02:14;98834.97;;;9.33;73.94
14117;BME280;7137;51.436;6.544;2024-03-29T02:05:17;98817.22;;;9.40;73.08
14117;BME280;7137;51.436;6.544;2024-03-29T02:08:19;98810.84;;;9.45;72.37
14117;BME280;7137;51.436;6.544;2024-03-29T02:11:21;98816.69;;;9.49;72.82
14117;BME280;7137;51.436;6.544;2024-03-29T02:14:22;98807.13;;;9.49;72.16
14117;BME280;7137;51.436;6.544;2024-03-29T02:17:24;98808.44;;;9.57;72.56
14117;BME280;7137;51.436;6.544;2024-03-29T02:20:27;98812.06;;;9.54;71.88
14117;BME280;7137;51.436;6.544;2024-03-29T02:23:32;98799.59;;;9.59;71.58
14117;BME280;7137;51.436;6.544;2024-03-29T02:26:35;98806.78;;;9.70;71.06
14117;BME280;7137;51.436;6.544;2024-03-29T02:29:41;98816.97;;;9.74;72.11
14117;BME280;7137;51.436;6.544;2024-03-29T02:32:43;98818.53;;;9.77;71.18
14117;BME280;7137;51.436;6.544;2024-03-29T02:35:45;98820.97;;;9.80;69.47
14117;BME280;7137;51.436;6.544;2024-03-29T02:38:46;98836.59;;;9.80;70.15
14117;BME280;7137;51.436;6.544;2024-03-29T02:41:49;98830.38;;;9.82;70.14
14117;BME280;7137;51.436;6.544;2024-03-29T02:44:51;98827.69;;;9.98;68.74
14117;BME280;7137;51.436;6.544;2024-03-29T02:47:52;98839.81;;;9.99;68.59
14117;BME280;7137;51.436;6.544;2024-03-29T02:50:54;98839.72;;;10.01;68.92
14117;BME280;7137;51.436;6.544;2024-03-29T02:53:55;98859.19;;;10.09;69.65
14117;BME280;7137;51.436;6.544;2024-03-29T02:56:57;98871.16;;;10.14;70.92
14117;BME280;7137;51.436;6.544;2024-03-29T02:59:58;98877.09;;;10.01;74.44
14117;BME280;7137;51.436;6.544;2024-03-29T03:02:59;98852.47;;;9.91;77.15
14117;BME280;7137;51.436;6.544;2024-03-29T03:06:04;98854.88;;;9.94;77.85
14117;BME280;7137;51.436;6.544;2024-03-29T03:09:05;98858.13;;;9.83;77.11
14117;BME280;7137;51.436;6.544;2024-03-29T03:12:26;98843.22;;;9.71;78.14
14117;BME280;7137;51.436;6.544;2024-03-29T03:15:27;98845.81;;;9.71;77.94
14117;BME280;7137;51.436;6.544;2024-03-29T03:18:29;98848.34;;;9.73;79.31
14117;BME280;7137;51.436;6.544;2024-03-29T03:21:31;98837.91;;;9.73;79.56
14117;BME280;7137;51.436;6.544;2024-03-29T03:24:31;98841.38;;;9.88;80.56
14117;BME280;7137;51.436;6.544;2024-03-29T03:27:34;98838.31;;;9.95;79.48
14117;BME280;7137;51.436;6.544;2024-03-29T03:30:38;98846.53;;;10.03;78.14
14117;BME280;7137;51.436;6.544;2024-03-29T03:33:40;98833.41;;;10.05;77.97
14117;BME280;7137;51.436;6.544;2024-03-29T03:36:41;98839.25;;;10.08;78.19
14117;BME280;7137;51.436;6.544;2024-03-29T03:39:43;98840.19;;;10.07;76.74
14117;BME280;7137;51.436;6.544;2024-03-29T03:42:45;98834.03;;;10.08;75.99
14117;BME280;7137;51.436;6.544;2024-03-29T03:45:46;98832.19;;;10.10;76.03
14117;BME280;7137;51.436;6.544;2024-03-29T03:48:48;98831.81;;;10.02;76.63
14117;BME280;7137;51.436;6.544;2024-03-29T03:51:49;98837.59;;;10.07;76.67
14117;BME280;7137;51.436;6.544;2024-03-29T03:54:50;98828.09;;;10.06;76.41
14117;BME280;7137;51.436;6.544;2024-03-29T03:57:54;98842.69;;;10.09;75.12
14117;BME280;7137;51.436;6.544;2024-03-29T04:00:55;98836.38;;;10.13;75.85
14117;BME280;7137;51.436;6.544;2024-03-29T04:03:56;98841.03;;;10.08;77.10
14117;BME280;7137;51.436;6.544;2024-03-29T04:06:57;98835.16;;;10.04;77.76
14117;BME280;7137;51.436;6.544;2024-03-29T04:09:58;98845.69;;;10.03;81.17
14117;BME280;7137;51.436;6.544;2024-03-29T04:13:01;98845.28;;;9.95;82.34
14117;BME280;7137;51.436;6.544;2024-03-29T04:16:02;98832.81;;;9.86;84.66
14117;BME280;7137;51.436;6.544;2024-03-29T04:19:03;98826.09;;;9.81;85.21
14117;BME280;7137;51.436;6.544;2024-03-29T04:22:04;98831.94;;;9.85;86.33
14117;BME280;7137;51.436;6.544;2024-03-29T04:25:06;98827.66;;;9.84;84.14
14117;BME280;7137;51.436;6.544;2024-03-29T04:28:08;98854.13;;;9.78;86.19
14117;BME280;7137;51.436;6.544;2024-03-29T04:31:09;98861.72;;;9.67;87.27
14117;BME280;7137;51.436;6.544;2024-03-29T04:34:11;98865.69;;;9.58;87.46
14117;BME280;7137;51.436;6.544;2024-03-29T04:37:12;98861.84;;;9.49;89.97
14117;BME280;7137;51.436;6.544;2024-03-29T04:40:14;98865.56;;;9.45;90.32
14117;BME280;7137;51.436;6.544;2024-03-29T04:43:17;98857.75;;;9.45;89.57
14117;BME280;7137;51.436;6.544;2024-03-29T04:46:19;98863.66;;;9.33;91.40
14117;BME280;7137;51.436;6.544;2024-03-29T04:49:22;98871.22;;;9.22;92.05
14117;BME280;7137;51.436;6.544;2024-03-29T04:52:30;98874.19;;;9.16;93.21
14117;BME280;7137;51.436;6.544;2024-03-29T04:55:32;98870.78;;;9.14;94.07
14117;BME280;7137;51.436;6.544;2024-03-29T04:58:35;98859.38;;;9.16;95.56
14117;BME280;7137;51.436;6.544;2024-03-29T05:01:36;98871.03;;;9.25;95.08
14117;BME280;7137;51.436;6.544;2024-03-29T05:04:38;98854.34;;;9.29;94.54
14117;BME280;7137;51.436;6.544;2024-03-29T05:07:39;98851.88;;;9.26;97.29
14117;BME280;7137;51.436;6.544;2024-03-29T05:10:42;98858.63;;;9.30;95.83
14117;BME280;7137;51.436;6.544;2024-03-29T05:13:44;98847.09;;;9.34;96.95
14117;BME280;7137;51.436;6.544;2024-03-29T05:16:46;98842.28;;;9.27;96.23
14117;BME280;7137;51.436;6.544;2024-03-29T05:19:48;98849.88;;;9.31;95.42
14117;BME280;7137;51.436;6.544;2024-03-29T05:22:50;98845.06;;;9.23;96.22
14117;BME280;7137;51.436;6.544;2024-03-29T05:25:51;98840.22;;;9.17;95.35
14117;BME280;7137;51.436;6.544;2024-03-29T05:28:54;98842.97;;;9.14;96.67
14117;BME280;7137;51.436;6.544;2024-03-29T05:31:57;98834.84;;;9.20;98.04
14117;BME280;7137;51.436;6.544;2024-03-29T05:34:59;98838.75;;;9.28;97.01
14117;BME280;7137;51.436;6.544;2024-03-29T05:38:00;98843.22;;;9.26;96.22
14117;BME280;7137;51.436;6.544;2024-03-29T05:41:03;98855.41;;;9.25;95.60
14117;BME280;7137;51.436;6.544;2024-03-29T05:44:06;98837.78;;;9.30;97.32
14117;BME280;7137;51.436;6.544;2024-03-29T05:47:08;98822.06;;;9.16;97.90
14117;BME280;7137;51.436;6.544;2024-03-29T05:50:09;98826.34;;;9.17;98.15
14117;BME280;7137;51.436;6.544;2024-03-29T05:53:11;98827.78;;;9.22;98.76
14117;BME280;7137;51.436;6.544;2024-03-29T05:56:13;98818.09;;;9.25;99.45
14117;BME280;7137;51.436;6.544;2024-03-29T05:59:16;98817.72;;;9.16;100.00
14117;BME280;7137;51.436;6.544;2024-03-29T06:02:17;98818.78;;;9.12;100.00
14117;BME280;7137;51.436;6.544;2024-03-29T06:05:19;98821.63;;;9.23;100.00
14117;BME280;7137;51.436;6.544;2024-03-29T06:08:20;98816.84;;;9.32;100.00
14117;BME280;7137;51.436;6.544;2024-03-29T06:11:24;98824.84;;;9.43;100.00
14117;BME280;7137;51.436;6.544;2024-03-29T06:14:27;98830.06;;;9.43;100.00
14117;BME280;7137;51.436;6.544;2024-03-29T06:17:46;98823.69;;;9.48;98.79
14117;BME280;7137;51.436;6.544;2024-03-29T06:20:47;98828.06;;;9.48;98.50
14117;BME280;7137;51.436;6.544;2024-03-29T06:23:49;98832.34;;;9.49;99.82
14117;BME280;7137;51.436;6.544;2024-03-29T06:26:51;98829.38;;;9.55;100.00
14117;BME280;7137;51.436;6.544;2024-03-29T06:29:54;98824.03;;;9.72;100.00
14117;BME280;7137;51.436;6.544;2024-03-29T06:32:56;98829.72;;;9.79;99.90
14117;BME280;7137;51.436;6.544;2024-03-29T06:35:58;98842.47;;;9.83;100.00
14117;BME280;7137;51.436;6.544;2024-03-29T06:38:59;98824.13;;;9.85;99.89
14117;BME280;7137;51.436;6.544;2024-03-29T06:42:01;98827.13;;;9.93;99.15
14117;BME280;7137;51.436;6.544;2024-03-29T06:45:04;98815.78;;;9.94;97.85
14117;BME280;7137;51.436;6.544;2024-03-29T06:48:07;98813.63;;;9.87;97.55
14117;BME280;7137;51.436;6.544;2024-03-29T06:51:10;98813.03;;;9.81;96.23
14117;BME280;7137;51.436;6.544;2024-03-29T06:54:12;98811.28;;;9.82;96.57
14117;BME280;7137;51.436;6.544;2024-03-29T06:57:13;98812.59;;;9.75;94.55
14117;BME280;7137;51.436;6.544;2024-03-29T07:00:19;98808.13;;;9.47;94.99
14117;BME280;7137;51.436;6.544;2024-03-29T07:03:21;98809.41;;;9.40;94.40
14117;BME280;7137;51.436;6.544;2024-03-29T07:06:23;98809.91;;;9.16;95.68
14117;BME280;7137;51.436;6.544;2024-03-29T07:09:25;98795.63;;;9.08;96.21
14117;BME280;7137;51.436;6.544;2024-03-29T07:12:26;98817.47;;;9.05;96.74
14117;BME280;7137;51.436;6.544;2024-03-29T07:15:29;98818.31;;;9.06;96.22
14117;BME280;7137;51.436;6.544;2024-03-29T07:18:31;98818.97;;;9.09;96.56
14117;BME280;7137;51.436;6.544;2024-03-29T07:21:32;98817.03;;;9.13;96.66
14117;BME280;7137;51.436;6.544;2024-03-29T07:24:34;98803.31;;;9.25;95.09
14117;BME280;7137;51.436;6.544;2024-03-29T07:27:35;98817.31;;;9.38;95.07
14117;BME280;7137;51.436;6.544;2024-03-29T07:30:38;98814.03;;;9.65;95.26
14117;BME280;7137;51.436;6.544;2024-03-29T07:33:40;98811.38;;;9.80;95.11
14117;BME280;7137;51.436;6.544;2024-03-29T07:36:41;98832.25;;;9.95;93.66
14117;BME280;7137;51.436;6.544;2024-03-29T07:39:43;98840.06;;;9.95;91.26
14117;BME280;7137;51.436;6.544;2024-03-29T07:42:46;98843.19;;;10.01;92.15
14117;BME280;7137;51.436;6.544;2024-03-29T07:45:49;98855.06;;;9.91;92.85
14117;BME280;7137;51.436;6.544;2024-03-29T07:48:52;98859.84;;;10.13;92.09
14117;BME280;7137;51.436;6.544;2024-03-29T07:51:55;98865.16;;;10.11;93.96
14117;BME280;7137;51.436;6.544;2024-03-29T07:54:56;98862.75;;;10.08;94.73
14117;BME280;7137;51.436;6.544;2024-03-29T07:58:00;98863.78;;;10.20;95.04
14117;BME280;7137;51.436;6.544;2024-03-29T08:01:03;98851.13;;;10.14;94.60
14117;BME280;7137;51.436;6.544;2024-03-29T08:04:04;98856.72;;;10.22;94.42
14117;BME280;7137;51.436;6.544;2024-03-29T08:07:06;98847.41;;;10.32;93.79
14117;BME280;7137;51.436;6.544;2024-03-29T08:10:09;98855.19;;;10.89;93.16
14117;BME280;7137;51.436;6.544;2024-03-29T08:13:10;98863.53;;;11.89;89.02
14117;BME280;7137;51.436;6.544;2024-03-29T08:16:15;98865.44;;;12.26;88.62
14117;BME280;7137;51.436;6.544;2024-03-29T08:19:18;98861.16;;;11.99;87.52
14117;BME280;7137;51.436;6.544;2024-03-29T08:22:19;98868.59;;;11.78;87.75
14117;BME280;7137;51.436;6.544;2024-03-29T08:25:21;98858.25;;;11.77;89.49
14117;BME280;7137;51.436;6.544;2024-03-29T08:28:22;98868.38;;;11.69;90.10
14117;BME280;7137;51.436;6.544;2024-03-29T08:31:25;98871.97;;;11.53;92.60
14117;BME280;7137;51.436;6.544;2024-03-29T08:34:27;98881.06;;;11.48;94.21
14117;BME280;7137;51.436;6.544;2024-03-29T08:37:34;98876.00;;;11.32;97.97
14117;BME280;7137;51.436;6.544;2024-03-29T08:40:36;98870.91;;;11.43;99.07
14117;BME280;7137;51.436;6.544;2024-03-29T08:43:40;98862.38;;;11.67;98.73
14117;BME280;7137;51.436;6.544;2024-03-29T08:46:43;98874.94;;;11.62;98.17
14117;BME280;7137;51.436;6.544;2024-03-29T08:49:45;98880.00;;;11.77;96.99
14117;BME280;7137;51.436;6.544;2024-03-29T08:52:46;98894.28;;;11.59;98.40
14117;BME280;7137;51.436;6.544;2024-03-29T08:55:48;98900.16;;;11.63;98.34
14117;BME280;7137;51.436;6.544;2024-03-29T08:58:50;98897.00;;;11.57;100.00
14117;BME280;7137;51.436;6.544;2024-03-29T09:01:52;98895.50;;;11.53;100.00
14117;BME280;7137;51.436;6.544;2024-03-29T09:04:54;98898.78;;;11.84;99.87
14117;BME280;7137;51.436;6.544;2024-03-29T09:07:56;98890.59;;;12.28;96.96
14117;BME280;7137;51.436;6.544;2024-03-29T09:10:58;98902.97;;;13.01;94.97
14117;BME280;7137;51.436;6.544;2024-03-29T09:14:01;98908.91;;;13.16;93.49
14117;BME280;7137;51.436;6.544;2024-03-29T09:17:06;98902.84;;;13.15;91.80
14117;BME280;7137;51.436;6.544;2024-03-29T09:20:09;98909.56;;;13.19;92.15
14117;BME280;7137;51.436;6.544;2024-03-29T09:23:11;98905.72;;;12.99;93.45
14117;BME280;7137;51.436;6.544;2024-03-29T09:26:17;98908.69;;;12.82;93.96
14117;BME280;7137;51.436;6.544;2024-03-29T09:29:18;98904.38;;;12.81;95.91
14117;BME280;7137;51.436;6.544;2024-03-29T09:32:22;98915.16;;;12.89;95.84
14117;BME280;7137;51.436;6.544;2024-03-29T09:35:24;98912.84;;;12.97;93.51
14117;BME280;7137;51.436;6.544;2024-03-29T09:38:25;98909.41;;;12.84;94.84
14117;BME280;7137;51.436;6.544;2024-03-29T09:41:27;98916.91;;;13.01;95.15
14117;BME280;7137;51.436;6.544;2024-03-29T09:44:32;98917.03;;;13.00;94.13
14117;BME280;7137;51.436;6.544;2024-03-29T09:47:36;98929.91;;;13.03;92.85
14117;BME280;7137;51.436;6.544;2024-03-29T09:50:38;98920.25;;;13.16;93.59
14117;BME280;7137;51.436;6.544;2024-03-29T09:53:41;98938.78;;;13.39;92.85
14117;BME280;7137;51.436;6.544;2024-03-29T09:56:43;98941.09;;;13.30;93.08
14117;BME280;7137;51.436;6.544;2024-03-29T09:59:45;98947.56;;;13.74;92.09
14117;BME280;7137;51.436;6.544;2024-03-29T10:02:49;98949.66;;;13.93;91.06
14117;BME280;7137;51.436;6.544;2024-03-29T10:05:51;98961.56;;;14.21;89.77
14117;BME280;7137;51.436;6.544;2024-03-29T10:08:54;98960.16;;;14.52;87.09
14117;BME280;7137;51.436;6.544;2024-03-29T10:11:58;98969.09;;;14.14;89.85
14117;BME280;7137;51.436;6.544;2024-03-29T10:15:00;98965.03;;;14.21;88.04
14117;BME280;7137;51.436;6.544;2024-03-29T10:18:10;98973.88;;;14.20;88.67
14117;BME280;7137;51.436;6.544;2024-03-29T10:21:12;98965.03;;;14.10;87.98
14117;BME280;7137;51.436;6.544;2024-03-29T10:24:16;98968.53;;;14.22;88.86
14117;BME280;7137;51.436;6.544;2024-03-29T10:27:18;98964.31;;;14.19;88.44
14117;BME280;7137;51.436;6.544;2024-03-29T10:30:19;98961.16;;;14.03;88.91
14117;BME280;7137;51.436;6.544;2024-03-29T10:33:23;98960.44;;;14.01;88.69
14117;BME280;7137;51.436;6.544;2024-03-29T10:36:25;98963.03;;;13.66;90.91
14117;BME280;7137;51.436;6.544;2024-03-29T10:39:28;98966.03;;;13.96;90.86
14117;BME280;7137;51.436;6.544;2024-03-29T10:42:31;98955.59;;;14.19;89.94
14117;BME280;7137;51.436;6.544;2024-03-29T10:45:34;98962.13;;;14.37;89.08
14117;BME280;7137;51.436;6.544;2024-03-29T10:48:37;98957.75;;;14.60;88.05
14117;BME280;7137;51.436;6.544;2024-03-29T10:51:40;98951.94;;;14.90;88.11
14117;BME280;7137;51.436;6.544;2024-03-29T10:54:43;98951.22;;;15.10;87.12
14117;BME280;7137;51.436;6.544;2024-03-29T10:57:46;98951.88;;;15.68;82.46
14117;BME280;7137;51.436;6.544;2024-03-29T11:00:55;98953.13;;;15.85;81.18
14117;BME280;7137;51.436;6.544;2024-03-29T11:04:03;98955.31;;;15.80;81.83
14117;BME280;7137;51.436;6.544;2024-03-29T11:07:14;98955.47;;;15.67;82.10
14117;BME280;7137;51.436;6.544;2024-03-29T11:10:23;98961.25;;;15.93;78.24
14117;BME280;7137;51.436;6.544;2024-03-29T11:13:31;98960.66;;;16.22;81.23
14117;BME280;7137;51.436;6.544;2024-03-29T11:16:35;98961.44;;;16.33;79.81
14117;BME280;7137;51.436;6.544;2024-03-29T11:19:38;98963.75;;;16.69;77.21
14117;BME280;7137;51.436;6.544;2024-03-29T11:22:41;98968.75;;;16.92;77.76
14117;BME280;7137;51.436;6.544;2024-03-29T11:25:43;98975.47;;;17.46;75.93
14117;BME280;7137;51.436;6.544;2024-03-29T11:28:48;98974.94;;;17.12;73.99
14117;BME280;7137;51.436;6.544;2024-03-29T11:31:56;98965.75;;;16.76;75.55
14117;BME280;7137;51.436;6.544;2024-03-29T11:34:59;98946.81;;;17.02;72.28
14117;BME280;7137;51.436;6.544;2024-03-29T11:38:00;98933.97;;;17.08;73.16
14117;BME280;7137;51.436;6.544;2024-03-29T11:41:06;98936.22;;;16.61;72.07
14117;BME280;7137;51.436;6.544;2024-03-29T11:44:07;98938.25;;;17.09;72.47
14117;BME280;7137;51.436;6.544;2024-03-29T11:47:09;98964.88;;;17.77;73.43
14117;BME280;7137;51.436;6.544;2024-03-29T11:50:14;98969.69;;;17.62;67.40
14117;BME280;7137;51.436;6.544;2024-03-29T11:53:15;98983.66;;;17.03;69.10
14117;BME280;7137;51.436;6.544;2024-03-29T11:56:17;98998.63;;;16.40;71.37
14117;BME280;7137;51.436;6.544;2024-03-29T11:59:21;99009.03;;;16.21;72.07
14117;BME280;7137;51.436;6.544;2024-03-29T12:02:23;99015.25;;;15.88;71.71
14117;BME280;7137;51.436;6.544;2024-03-29T12:05:26;99019.47;;;15.45;72.82
14117;BME280;7137;51.436;6.544;2024-03-29T12:08:28;99015.41;;;15.41;74.30
14117;BME280;7137;51.436;6.544;2024-03-29T12:11:31;99012.63;;;16.20;70.54
14117;BME280;7137;51.436;6.544;2024-03-29T12:14:33;99010.59;;;16.44;69.45
14117;BME280;7137;51.436;6.544;2024-03-29T12:17:36;99008.25;;;16.83;69.55
14117;BME280;7137;51.436;6.544;2024-03-29T12:20:40;99005.22;;;16.67;69.04
14117;BME280;7137;51.436;6.544;2024-03-29T12:23:47;99007.16;;;17.16;67.97
14117;BME280;7137;51.436;6.544;2024-03-29T12:26:48;99011.66;;;17.25;67.88
14117;BME280;7137;51.436;6.544;2024-03-29T12:29:50;99011.38;;;16.98;65.46
14117;BME280;7137;51.436;6.544;2024-03-29T12:33:00;99008.66;;;17.09;66.30
14117;BME280;7137;51.436;6.544;2024-03-29T12:36:04;99011.91;;;16.71;62.79
14117;BME280;7137;51.436;6.544;2024-03-29T12:39:06;99002.72;;;17.16;66.23
14117;BME280;7137;51.436;6.544;2024-03-29T12:42:08;99006.44;;;17.44;63.72
14117;BME280;7137;51.436;6.544;2024-03-29T12:45:11;99020.53;;;17.24;61.67
14117;BME280;7137;51.436;6.544;2024-03-29T12:48:15;99016.72;;;17.07;62.65
14117;BME280;7137;51.436;6.544;2024-03-29T12:51:19;99021.13;;;16.76;64.02
14117;BME280;7137;51.436;6.544;2024-03-29T12:54:20;99022.25;;;16.62;64.12
14117;BME280;7137;51.436;6.544;2024-03-29T12:57:23;99018.13;;;17.11;63.54
14117;BME280;7137;51.436;6.544;2024-03-29T13:00:25;99025.69;;;16.95;64.33
14117;BME280;7137;51.436;6.544;2024-03-29T13:03:27;99017.72;;;17.46;63.62
14117;BME280;7137;51.436;6.544;2024-03-29T13:06:30;99021.19;;;17.47;61.40
14117;BME280;7137;51.436;6.544;2024-03-29T13:09:31;99018.81;;;17.44;61.01
14117;BME280;7137;51.436;6.544;2024-03-29T13:12:33;99020.03;;;17.40;60.42
14117;BME280;7137;51.436;6.544;2024-03-29T13:15:36;99030.53;;;17.20;60.92
14117;BME280;7137;51.436;6.544;2024-03-29T13:18:38;99025.75;;;17.05;62.62
14117;BME280;7137;51.436;6.544;2024-03-29T13:21:41;99026.56;;;17.05;60.56
14117;BME280;7137;51.436;6.544;2024-03-29T13:24:43;99027.00;;;17.10;62.52
14117;BME280;7137;51.436;6.544;2024-03-29T13:27:46;99028.66;;;17.11;62.30
14117;BME280;7137;51.436;6.544;2024-03-29T13:30:48;99032.34;;;16.99;62.71
14117;BME280;7137;51.436;6.544;2024-03-29T13:33:51;99042.19;;;17.18;62.29
14117;BME280;7137;51.436;6.544;2024-03-29T13:36:55;99049.38;;;17.16;62.96
14117;BME280;7137;51.436;6.544;2024-03-29T13:39:57;99064.13;;;17.49;61.53
14117;BME280;7137;51.436;6.544;2024-03-29T13:42:59;99061.84;;;17.35;62.75
14117;BME280;7137;51.436;6.544;2024-03-29T13:46:01;99065.81;;;17.50;60.63
14117;BME280;7137;51.436;6.544;2024-03-29T13:49:02;99048.84;;;17.52;60.53
14117;BME280;7137;51.436;6.544;2024-03-29T13:52:06;99027.25;;;17.68;60.76
14117;BME280;7137;51.436;6.544;2024-03-29T13:55:08;99033.84;;;17.53;62.42
14117;BME280;7137;51.436;6.544;2024-03-29T13:58:09;99025.50;;;17.58;59.79
14117;BME280;7137;51.436;6.544;2024-03-29T14:01:11;99031.22;;;17.53;60.15
14117;BME280;7137;51.436;6.544;2024-03-29T14:04:12;99026.56;;;17.05;59.51
14117;BME280;7137;51.436;6.544;2024-03-29T14:07:15;99029.91;;;17.07;61.14
14117;BME280;7137;51.436;6.544;2024-03-29T14:10:18;99027.59;;;17.54;60.16
14117;BME280;7137;51.436;6.544;2024-03-29T14:13:20;99023.25;;;17.74;60.07
14117;BME280;7137;51.436;6.544;2024-03-29T14:16:21;99017.91;;;17.64;56.89
14117;BME280;7137;51.436;6.544;2024-03-29T14:19:23;99026.28;;;17.69;57.31
14117;BME280;7137;51.436;6.544;2024-03-29T14:22:28;99020.03;;;17.40;58.79
14117;BME280;7137;51.436;6.544;2024-03-29T14:25:31;99036.84;;;17.69;57.65
14117;BME280;7137;51.436;6.544;2024-03-29T14:28:33;99034.38;;;17.77;58.96
14117;BME280;7137;51.436;6.544;2024-03-29T14:31:35;99031.28;;;17.72;57.95
14117;BME280;7137;51.436;6.544;2024-03-29T14:34:37;99028.44;;;17.95;58.31
14117;BME280;7137;51.436;6.544;2024-03-29T14:37:46;99047.25;;;18.21;58.07
14117;BME280;7137;51.436;6.544;2024-03-29T14:40:47;99042.63;;;18.03;58.26
14117;BME280;7137;51.436;6.544;2024-03-29T14:43:49;99055.50;;;17.87;57.54
14117;BME280;7137;51.436;6.544;2024-03-29T14:46:52;99051.84;;;17.69;55.79
14117;BME280;7137;51.436;6.544;2024-03-29T14:49:54;99048.38;;;17.38;55.59
14117;BME280;7137;51.436;6.544;2024-03-29T14:52:57;99044.94;;;17.16;57.26
14117;BME280;7137;51.436;6.544;2024-03-29T14:55:58;99041.88;;;17.82;56.60
14117;BME280;7137;51.436;6.544;2024-03-29T14:59:03;99033.31;;;18.09;55.39
14117;BME280;7137;51.436;6.544;2024-03-29T15:02:05;99031.78;;;18.06;55.77
14117;BME280;7137;51.436;6.544;2024-03-29T15:05:07;99038.13;;;17.85;56.79
14117;BME280;7137;51.436;6.544;2024-03-29T15:08:13;99036.22;;;17.56;57.56
14117;BME280;7137;51.436;6.544;2024-03-29T15:11:18;99042.56;;;17.44;56.55
14117;BME280;7137;51.436;6.544;2024-03-29T15:14:19;99047.22;;;17.31;54.78
14117;BME280;7137;51.436;6.544;2024-03-29T15:17:21;99055.63;;;17.15;55.08
14117;BME280;7137;51.436;6.544;2024-03-29T15:20:22;99058.41;;;17.13;58.04
14117;BME280;7137;51.436;6.544;2024-03-29T15:23:27;99051.81;;;17.29;58.63
14117;BME280;7137;51.436;6.544;2024-03-29T15:26:29;99047.13;;;17.11;57.07
14117;BME280;7137;51.436;6.544;2024-03-29T15:29:31;99041.09;;;17.20;59.43
14117;BME280;7137;51.436;6.544;2024-03-29T15:32:33;99045.91;;;17.15;58.47
14117;BME280;7137;51.436;6.544;2024-03-29T15:35:36;99028.94;;;17.39;58.04
14117;BME280;7137;51.436;6.544;2024-03-29T15:38:39;99030.47;;;17.41;56.49
14117;BME280;7137;51.436;6.544;2024-03-29T15:41:41;99047.22;;;17.31;57.18
14117;BME280;7137;51.436;6.544;2024-03-29T15:44:44;99059.31;;;17.03;58.01
14117;BME280;7137;51.436;6.544;2024-03-29T15:47:45;99060.28;;;16.81;58.46
14117;BME280;7137;51.436;6.544;2024-03-29T15:50:47;99060.44;;;16.79;59.08
14117;BME280;7137;51.436;6.544;2024-03-29T15:53:50;99060.72;;;16.65;59.08
14117;BME280;7137;51.436;6.544;2024-03-29T15:56:52;99069.25;;;16.57;59.92
14117;BME280;7137;51.436;6.544;2024-03-29T15:59:54;99085.19;;;16.56;59.42
14117;BME280;7137;51.436;6.544;2024-03-29T16:02:56;99091.78;;;16.61;59.17
14117;BME280;7137;51.436;6.544;2024-03-29T16:05:58;99080.44;;;16.82;60.14
14117;BME280;7137;51.436;6.544;2024-03-29T16:09:02;99090.06;;;16.60;60.00
14117;BME280;7137;51.436;6.544;2024-03-29T16:12:05;99090.34;;;16.57;61.05
14117;BME280;7137;51.436;6.544;2024-03-29T16:15:07;99089.66;;;16.44;58.67
14117;BME280;7137;51.436;6.544;2024-03-29T16:18:11;99095.72;;;16.35;60.01
14117;BME280;7137;51.436;6.544;2024-03-29T16:21:12;99096.97;;;16.09;59.65
14117;BME280;7137;51.436;6.544;2024-03-29T16:24:15;99107.00;;;16.15;60.38